• Join FlightAware (Why Join?)
  • Login
  • US Flag 
07:45PM EDT


 

Airport Tracker/Info


-or-


 

Live Flight TrackerFlight Track Log ✈ SWA2130 ✈ 02-May-2013 ✈ KELP - KSAT

Flight Track Log - Related Links

Times and Time Zones

All times are in EDT time to prevent confusion due to time zone crossing. See the SWA2130 flight status page for this flight to view local times or setup timezone preferences in your user account.

Time Position Orientation Groundspeed Altitude Reporting Facility
EDT Latitude Longitude Course Direction KTS MPH feet Rate Location/Type
11:03PM 31.7942 -106.3225 102° East 143 165 6,200  Level Albuquerque Center
11:03PM 31.7906 -106.2822 96° East 180 207 7,500 1,800 Climbing Albuquerque Center
11:04PM 31.7811 -106.2506 109° East 243 280 8,000 1,440 Climbing Albuquerque Center
11:04PM 31.7475 -106.2206 143° Southeast 261 300 9,000 1,920 Climbing Albuquerque Center
11:05PM 31.7197 -106.1961 143° Southeast 304 350 10,000 2,940 Climbing Albuquerque Center
11:05PM 31.6850 -106.1553 135° Southeast 301 346 12,000 3,000 Climbing Albuquerque Center
11:06PM 31.6592 -106.1214 132° Southeast 329 379 13,000 2,940 Climbing Albuquerque Center
11:06PM 31.6236 -106.0689 128° Southeast 344 396 15,000 2,400 Climbing Albuquerque Center
11:07PM 31.5583 -105.9731 129° Southeast 373 429 17,300 2,640 Climbing Albuquerque Center
11:08PM 31.4858 -105.8461 124° Southeast 392 451 20,500 2,700 Climbing Albuquerque Center
11:09PM 31.4544 -105.7161 106° East 417 480 22,900 2,280 Climbing Albuquerque Center
11:10PM 31.4236 -105.5769 105° East 439 505 25,200 2,160 Climbing Albuquerque Center
11:11PM 31.3939 -105.4317 103° East 456 525 27,400 2,040 Climbing Albuquerque Center
11:12PM 31.3622 -105.2794 104° East 474 545 29,400 1,860 Climbing Albuquerque Center
11:14PM 31.3297 -105.1239 104° East 485 558 31,300 1,680 Climbing Albuquerque Center
11:15PM 31.2958 -104.9644 104° East 496 571 32,900 1,740 Climbing Albuquerque Center
11:16PM 31.2625 -104.8033 104° East 503 579 34,900 1,020 Climbing Albuquerque Center
11:17PM 31.2275 -104.6425 104° East 506 582 35,000 900 Climbing Albuquerque Center
11:18PM 31.1925 -104.4828 104° East 505 581 36,800 1,620 Climbing Albuquerque Center
11:19PM 31.1594 -104.3256 104° East 500 575 38,400 1,260 Climbing Albuquerque Center
11:20PM 31.1247 -104.1692 105° East 498 573 39,500 1,080 Climbing Albuquerque Center
11:21PM 31.0822 -103.9803 105° East 501 577 40,600 720 Climbing Albuquerque Center
11:22PM 31.0456 -103.8219 105° East 505 581 41,000 180 Climbing Albuquerque Center
11:23PM 31.0114 -103.6769 105° East 505 581 41,000  Level Albuquerque Center
11:24PM 30.9756 -103.5181 105° East 507 583 41,000  Level Albuquerque Center
11:25PM 30.9414 -103.3614 104° East 504 580 41,000  Level Albuquerque Center
11:26PM 30.8972 -103.1711 105° East 508 585 41,000  Level Albuquerque Center
11:27PM 30.8628 -103.0164 105° East 501 577 41,000  Level Albuquerque Center
11:28PM 30.8269 -102.8617 105° East 500 575 41,000  Level Albuquerque Center
11:29PM 30.7903 -102.7050 105° East 503 579 41,000  Level Albuquerque Center
11:30PM 30.7533 -102.5497 105° East 504 580 41,000  Level Albuquerque Center
11:31PM 30.7178 -102.3953 105° East 501 577 41,000  Level Albuquerque Center
11:32PM 30.6811 -102.2397 105° East 502 578 41,000  Level Albuquerque Center
11:33PM 30.6358 -102.0539 106° East 502 578 41,000  Level Albuquerque Center
11:34PM 30.5983 -101.8978 106° East 504 580 41,000  Level Albuquerque Center
11:35PM 30.5767 -101.7994 104° East 508 585 41,000  Level Houston Center
11:36PM 30.5386 -101.6428 106° East 508 585 41,000  Level Houston Center
11:37PM 30.4967 -101.4650 105° East 510 587 41,000  Level Houston Center
11:38PM 30.4575 -101.3081 106° East 509 586 41,000  Level Houston Center
11:39PM 30.4181 -101.1497 106° East 511 588 41,000 -600 Level Houston Center
11:40PM 30.3775 -100.9911 106° East 514 592 39,900 -1,800 Descending Houston Center
11:41PM 30.3381 -100.8350 106° East 508 585 37,400 -2,520 Descending Houston Center
11:42PM 30.3000 -100.6794 106° East 503 579 34,800 -2,400 Descending Houston Center
11:43PM 30.2603 -100.5242 106° East 503 579 32,600 -2,220 Descending Houston Center
11:44PM 30.2225 -100.3725 106° East 490 564 30,400 -2,160 Descending Houston Center
11:45PM 30.1853 -100.2233 106° East 475 547 28,300 -2,040 Descending Houston Center
11:46PM 30.1483 -100.0792 106° East 463 533 26,300 -1,980 Descending Houston Center
11:47PM 30.1125 -99.9433 107° East 443 510 24,400 -1,920 Descending Houston Center
11:48PM 30.0792 -99.8122 106° East 427 491 22,500 -1,860 Descending Houston Center
11:49PM 30.0450 -99.6847 107° East 417 480 20,700 -1,740 Descending Houston Center
11:50PM 30.0142 -99.5633 106° East 399 459 19,000 -1,680 Descending Houston Center
11:51PM 29.9825 -99.4428 107° East 387 445 17,500 -1,800 Descending Houston Center
11:52PM 29.9494 -99.3258 108° East 380 437 15,600 -1,920 Descending Houston Center
11:53PM 29.9181 -99.2042 107° East 374 430 13,600 -1,920 Descending Houston Center
11:54PM 29.8853 -99.1139 113° Southeast 362 417 12,000 -1,860 Descending Houston Center
11:55PM 29.8289 -99.0217 125° Southeast 348 400 10,100 -1,080 Descending Houston Center
11:56PM 29.7581 -98.9311 132° Southeast 291 335 9,700 -660 Descending Houston Center
11:57PM 29.7017 -98.8656 135° Southeast 284 327 8,700 -1,080 Descending Houston Center
11:58PM 29.6411 -98.7942 134° Southeast 285 328 7,600 -1,080 Descending Houston Center
11:59PM 29.5847 -98.7317 136° Southeast 283 326 6,600 -840 Descending Houston Center
12:00AM 29.5275 -98.6769 140° Southeast 264 304 6,000 -300 Descending Houston Center
12:01AM 29.4806 -98.6225 135° Southeast 239 275 6,000  Level Houston Center
12:02AM 29.4372 -98.5631 130° Southeast 241 277 6,000 -120 Level Houston Center
12:03AM 29.3992 -98.5122 131° Southeast 225 259 5,800 -540 Descending Houston Center
12:04AM 29.3586 -98.4619 133° Southeast 207 238 5,000 -420 Descending Houston Center
12:05AM 29.3436 -98.4111 109° East 181 208 5,000 -540 Level Houston Center
12:06AM 29.3606 -98.3683 66° East 148 170 4,000 -960 Descending Houston Center
12:07AM 29.3989 -98.3733 354° North 131 151 3,100 -660 Descending Houston Center
12:08AM 29.4428 -98.3814 351° North 126 145 2,600 -300 Descending Houston Center
12:09AM 29.4614 -98.3897 339° North 105 121 2,600 -120 Level Houston Center
12:09AM 29.4706 -98.3939 338° Northwest 110 127 2,500 -600 Descending Houston Center
12:10AM 29.4864 -98.4131 314° West 125 144 2,000 -720 Descending Houston Center
12:10AM 29.4942 -98.4222 314° West 122 140 1,800 -600 Descending Houston Center
12:11AM 29.5083 -98.4442 307° West 126 145 1,400 -720 Descending Houston Center
12:11AM 29.5194 -98.4544 321° Northwest 125 144 1,100 -900 Descending Houston Center